Terminal Aerodrome Forecast
Issued by NWS

Home | Current Version | Previous Version | Text Only | Print | Product List | Glossary On
Versions: 1 2 3 4 5 6 7 8 9 10 11 12 13 14 15 16
225
FTUS42 KTBW 270538
TAFLAL
TAF
KLAL 270538Z 2706/2806 VRB03KT P6SM SCT020
     FM271400 25006KT P6SM FEW030 SCT120
     FM271600 26009KT P6SM VCSH SCT040 SCT100
     FM272100 28011KT P6SM SCT040 BKN100
     FM280100 30005KT P6SM FEW030 SCT200
      AMD NOT SKED 2706/2711=

USA.gov is the U.S. government's official web portal to all federal, state and local government web resources and services.